Flight Track Log - Related Links

Times and Time Zones

All times are in EDT time to prevent confusion due to time zone crossing. See the AAY876 flight status page for this flight to view local times or setup timezone preferences in your user account.

Time Position Orientation Groundspeed Altitude Reporting Facility
EDT Latitude Longitude Course Direction KTS MPH feet Rate Location/Type
Tue 02:44:53 PM 27.9333 -82.6833 16° North 172 198 700  Level Tampa TRACON
Tue 02:45:54 PM 27.9833 -82.6667 16° North 234 269 2,000 1,174 Climbing Tampa TRACON
Tue 02:47:00 PM 28.1164 -82.7205 349° North  Level FlightAware Approximate
Tue 02:47:57 PM 28.1164 -82.6950 349° North 268 308 4,300  Level Jacksonville Center
Tue 02:48:57 PM 28.1936 -82.7111 350° North 268 308 7,400 3,000 Climbing Jacksonville Center
Tue 02:49:57 PM 28.2689 -82.7275 349° North 268 308 10,300 2,000 Climbing Jacksonville Center
Tue 02:50:57 PM 28.3544 -82.7511 346° North 284 327 11,400 1,300 Climbing Jacksonville Center
Tue 02:51:57 PM 28.4586 -82.7722 350° North 332 382 12,900 1,900 Climbing Jacksonville Center
Tue 02:52:57 PM 28.5694 -82.8003 347° North 378 435 15,200 2,250 Climbing Jacksonville Center
Tue 02:53:57 PM 28.6800 -82.8264 348° North 400 460 17,400 2,000 Climbing Jacksonville Center
Tue 02:54:57 PM 28.7947 -82.8569 347° North 405 466 19,200 1,700 Climbing Jacksonville Center
Tue 02:55:57 PM 28.9117 -82.8831 349° North 416 479 20,800 1,650 Climbing Jacksonville Center
Tue 02:56:57 PM 29.0328 -82.9117 348° North 427 491 22,500 1,450 Climbing Jacksonville Center
Tue 02:57:57 PM 29.1600 -82.9400 349° North 446 513 23,700 1,900 Climbing Jacksonville Center
Tue 02:58:57 PM 29.2831 -82.9736 347° North 451 519 26,300 2,200 Climbing Jacksonville Center
Tue 02:59:57 PM 29.4022 -82.9997 349° North 446 513 28,100 1,300 Climbing Jacksonville Center
Tue 03:00:57 PM 29.5106 -83.0333 345° North 435 501 28,900 1,050 Climbing Jacksonville Center
Tue 03:01:57 PM 29.6317 -83.0647 347° North 440 506 30,200 1,100 Climbing Jacksonville Center
Tue 03:02:57 PM 29.7381 -83.1175 337° Northwest 433 498 31,100 900 Climbing Jacksonville Center
Tue 03:03:57 PM 29.8508 -83.1656 340° North 427 491 32,000 450 Climbing Jacksonville Center
Tue 03:04:57 PM 29.9614 -83.2211 336° Northwest 422 486 32,000  Level Jacksonville Center
Tue 03:05:57 PM 30.0739 -83.2694 340° North 422 486 32,000  Level Jacksonville Center
Tue 03:06:57 PM 30.1822 -83.3228 337° Northwest 427 491 32,000  Level Jacksonville Center
Tue 03:07:57 PM 30.2969 -83.3714 340° North 427 491 32,000  Level Jacksonville Center
Tue 03:08:57 PM 30.4053 -83.4272 336° Northwest 432 497 32,000  Level Jacksonville Center
Tue 03:09:57 PM 30.5178 -83.4761 339° North 432 497 32,000  Level Jacksonville Center
Tue 03:10:57 PM 30.6242 -83.5322 336° Northwest 432 497 32,000  Level Jacksonville Center
Tue 03:11:57 PM 30.7469 -83.5864 339° North 426 490 32,000  Level Jacksonville Center
Tue 03:12:57 PM 30.8531 -83.6403 336° Northwest 421 484 32,000  Level Jacksonville Center
Tue 03:13:57 PM 30.9656 -83.6872 340° North 421 484 32,000  Level Jacksonville Center
Tue 03:14:57 PM 31.0717 -83.7464 334° Northwest 421 484 32,000  Level Jacksonville Center
Tue 03:15:57 PM 31.1842 -83.7958 339° North 421 484 32,000  Level Jacksonville Center
Tue 03:18:17 PM 31.4294 -83.9147 338° Northwest 433 498 32,000  Level Atlanta Center
Tue 03:19:17 PM 31.5400 -83.9683 338° Northwest 433 498 32,000  Level Atlanta Center
Tue 03:20:17 PM 31.6631 -83.9925 351° North 433 498 32,000  Level Atlanta Center
Tue 03:21:17 PM 31.7947 -84.0242 348° North 433 498 32,000  Level Atlanta Center
Tue 03:22:17 PM 31.9178 -84.0486 350° North 439 505 32,000  Level Atlanta Center
Tue 03:23:17 PM 32.0347 -84.0781 348° North 439 505 32,000  Level Atlanta Center
Tue 03:24:17 PM 32.1558 -84.0978 352° North 434 499 32,000  Level Atlanta Center
Tue 03:25:17 PM 32.2767 -84.1297 347° North 434 499 32,000  Level Atlanta Center
Tue 03:26:17 PM 32.3997 -84.1544 350° North 434 499 32,000  Level Atlanta Center
Tue 03:27:17 PM 32.5189 -84.1867 347° North 434 499 32,000  Level Atlanta Center
Tue 03:28:17 PM 32.6397 -84.2067 352° North 429 494 32,000  Level Atlanta Center
Tue 03:29:17 PM 32.7567 -84.2414 346° North 429 494 32,000  Level Atlanta Center
Tue 03:30:17 PM 32.8672 -84.2614 351° North 429 494 32,000  Level Atlanta Center
Tue 03:31:17 PM 32.9842 -84.2939 347° North 429 494 32,000 300 Level Atlanta Center
Tue 03:32:17 PM 33.1156 -84.3192 351° North 429 494 32,600 500 Climbing Atlanta Center
Tue 03:33:17 PM 33.2344 -84.3492 348° North 436 502 33,000 200 Climbing Atlanta Center
Tue 03:34:17 PM 33.3533 -84.3744 350° North 434 499 33,000  Level Atlanta Center
Tue 03:35:17 PM 33.4722 -84.4050 348° North 434 499 33,000  Level Atlanta Center
Tue 03:36:17 PM 33.5911 -84.4278 351° North 434 499 33,000  Level Atlanta Center
Tue 03:37:17 PM 33.6997 -84.4558 348° North 431 496 33,000 450 Level Atlanta Center
Tue 03:38:17 PM 33.8164 -84.4814 350° North 431 496 33,900 500 Climbing Atlanta Center
Tue 03:39:17 PM 33.9289 -84.5144 346° North 423 487 34,000 50 Climbing Atlanta Center
Tue 03:40:17 PM 34.0667 -84.5403 351° North 436 502 34,000  Level Atlanta Center
Tue 03:41:17 PM 34.1897 -84.5736 347° North 441 507 34,000  Level Atlanta Center
Tue 03:42:17 PM 34.3086 -84.6022 349° North 441 507 34,000  Level Atlanta Center
Tue 03:43:17 PM 34.4272 -84.6306 349° North 436 502 34,000  Level Atlanta Center
Tue 03:44:17 PM 34.5461 -84.6592 349° North 431 496 34,000  Level Atlanta Center
Tue 03:45:17 PM 34.6628 -84.6853 350° North 426 490 34,000  Level Atlanta Center
Tue 03:46:17 PM 34.7753 -84.7164 347° North 419 482 34,000  Level Atlanta Center
Tue 03:47:17 PM 34.8942 -84.7478 348° North 419 482 34,000  Level Atlanta Center
Tue 03:48:17 PM 35.0108 -84.7792 348° North 429 494 34,000  Level Atlanta Center
Tue 03:49:17 PM 35.1297 -84.8083 349° North 429 494 34,000  Level Atlanta Center
Tue 03:50:17 PM 35.2442 -84.8372 348° North 429 494 34,000  Level Atlanta Center
Tue 03:51:17 PM 35.3631 -84.8639 350° North 429 494 34,000  Level Atlanta Center
Tue 03:52:17 PM 35.4775 -84.8956 347° North 429 494 34,000  Level Atlanta Center
Tue 03:53:17 PM 35.5983 -84.9225 350° North 430 495 34,000  Level Atlanta Center
Tue 03:55:27 PM 35.8519 -84.9872 348° North 431 496 34,000  Level Indianapolis Center
Tue 03:56:29 PM 35.9706 -85.0208 347° North 431 496 34,000  Level Indianapolis Center
Tue 03:57:31 PM 36.0811 -85.0419 351° North 435 501 34,000  Level Indianapolis Center
Tue 03:58:34 PM 36.2206 -85.0839 346° North 429 494 34,000  Level Indianapolis Center
Tue 03:59:36 PM 36.3383 -85.1097 350° North 429 494 34,000  Level Indianapolis Center
Tue 04:00:38 PM 36.4517 -85.1431 347° North 423 487 34,000  Level Indianapolis Center
Tue 04:01:40 PM 36.5656 -85.1678 350° North 421 484 34,000  Level Indianapolis Center
Tue 04:02:42 PM 36.6736 -85.2139 341° North 410 472 34,000  Level Indianapolis Center
Tue 04:03:44 PM 36.7822 -85.2619 340° North 411 473 34,000  Level Indianapolis Center
Tue 04:04:46 PM 36.8894 -85.3078 341° North 410 472 34,000  Level Indianapolis Center
Tue 04:05:48 PM 37.0181 -85.3619 341° North 409 471 34,000  Level Indianapolis Center
Tue 04:06:50 PM 37.1169 -85.4128 338° Northwest 392 451 34,000  Level Indianapolis Center
Tue 04:07:52 PM 37.2172 -85.4542 342° North 383 441 34,000  Level Indianapolis Center
Tue 04:08:55 PM 37.3175 -85.5033 339° North 383 441 34,000 96 Level Indianapolis Center
Tue 04:09:57 PM 37.4250 -85.5467 342° North 387 445 34,200  Climbing Indianapolis Center
Tue 04:10:59 PM 37.5256 -85.5967 338° Northwest 391 450 34,000 -97 Descending Indianapolis Center
Tue 04:12:01 PM 37.6239 -85.6392 341° North 378 435 34,000  Level Indianapolis Center
Tue 04:13:03 PM 37.7228 -85.6914 337° Northwest 382 440 34,000  Level Indianapolis Center
Tue 04:14:05 PM 37.8439 -85.7439 341° North 381 438 34,000  Level Indianapolis Center
Tue 04:15:07 PM 37.9433 -85.7958 338° Northwest 383 441 34,000  Level Indianapolis Center
Tue 04:16:09 PM 38.0428 -85.8383 341° North 381 438 34,000  Level Indianapolis Center
Tue 04:17:11 PM 38.1428 -85.8897 338° Northwest 385 443 34,000  Level Indianapolis Center
Tue 04:18:13 PM 38.2433 -85.9319 342° North 384 442 34,000  Level Indianapolis Center
Tue 04:19:15 PM 38.3417 -85.9847 337° Northwest 384 442 34,000  Level Indianapolis Center
Tue 04:20:18 PM 38.4606 -86.0344 342° North 379 436 34,000  Level Indianapolis Center
Tue 04:21:20 PM 38.5575 -86.0878 337° Northwest 379 436 34,000  Level Indianapolis Center
Tue 04:22:22 PM 38.6592 -86.1303 342° North 379 436 34,000  Level Indianapolis Center
Tue 04:23:24 PM 38.7544 -86.1819 337° Northwest 378 435 34,000  Level Indianapolis Center
Tue 04:24:26 PM 38.8522 -86.2233 342° North 375 432 34,000  Level Indianapolis Center
Tue 04:25:28 PM 38.9539 -86.2806 336° Northwest 367 422 34,000  Level Indianapolis Center
Tue 04:26:30 PM 39.0492 -86.3192 343° North 363 418 34,000  Level Indianapolis Center
Tue 04:27:32 PM 39.1408 -86.3697 337° Northwest 362 417 34,000  Level Indianapolis Center
Tue 04:28:34 PM 39.2353 -86.4092 342° North 361 415 34,000  Level Indianapolis Center
Tue 04:29:36 PM 39.3458 -86.4694 337° Northwest 359 413 34,000  Level Indianapolis Center
Tue 04:30:38 PM 39.4411 -86.5100 342° North 359 413 34,000  Level Indianapolis Center
Tue 04:31:40 PM 39.5331 -86.5600 337° Northwest 359 413 34,000  Level Indianapolis Center
Tue 04:32:43 PM 39.6281 -86.6008 342° North 358 412 34,000  Level Indianapolis Center
Tue 04:33:45 PM 39.7181 -86.6528 336° Northwest 354 407 34,000  Level Indianapolis Center
Tue 04:34:47 PM 39.8128 -86.6919 342° North 354 407 34,000  Level Indianapolis Center
Tue 04:35:49 PM 39.9033 -86.7450 336° Northwest 354 407 34,000  Level Indianapolis Center
Tue 04:36:51 PM 40.0153 -86.7958 341° North 354 407 34,000  Level Indianapolis Center
Tue 04:37:53 PM 40.1031 -86.8547 333° Northwest 354 407 34,000  Level Indianapolis Center
Tue 04:38:56 PM 40.1639 -86.9569 308° West 350 403 34,000 -144 Level Chicago Center
Tue 04:39:58 PM 40.2342 -87.0461 316° Northwest 353 406 33,700 -435 Descending Chicago Center
Tue 04:41:00 PM 40.2978 -87.1419 311° West 351 404 33,100 -629 Descending Chicago Center
Tue 04:42:02 PM 40.3653 -87.2342 314° West 350 403 32,400 -726 Descending Chicago Center
Tue 04:43:04 PM 40.4386 -87.3561 308° West 353 406 31,600 -720 Descending Chicago Center
Tue 04:44:07 PM 40.5025 -87.4433 314° West 354 407 30,900 -672 Descending Chicago Center
Tue 04:45:09 PM 40.5650 -87.5436 309° West 354 407 30,200 -435 Descending Chicago Center
Tue 04:46:11 PM 40.6461 -87.6614 312° West 357 411 30,000 -97 Descending Chicago Center
Tue 04:47:13 PM 40.7097 -87.7631 310° West 357 411 30,000  Level Chicago Center
Tue 04:48:15 PM 40.7783 -87.8600 313° West 358 412 30,000  Level Chicago Center
Tue 04:49:17 PM 40.8414 -87.9644 309° West 360 414 30,000 -290 Level Chicago Center
Tue 04:50:19 PM 40.9103 -88.0619 313° West 361 415 29,400 -677 Descending Chicago Center
Tue 04:51:21 PM 40.9742 -88.1656 309° West 361 415 28,600 -919 Descending Chicago Center
Tue 04:52:23 PM 41.0433 -88.2669 312° West 364 419 27,500 -1,104 Descending Chicago Center
Tue 04:53:26 PM 41.1217 -88.3964 309° West 372 428 26,300 -1,056 Descending Chicago Center
Tue 04:54:28 PM 41.1906 -88.4933 313° West 365 420 25,300 -919 Descending Chicago Center
Tue 04:55:30 PM 41.2508 -88.5950 308° West 356 410 24,400 -677 Descending Chicago Center
Tue 04:56:32 PM 41.3172 -88.6875 314° West 348 400 23,900 -774 Descending Chicago Center
Tue 04:57:34 PM 41.3742 -88.7903 306° West 347 399 22,800 -1,113 Descending Chicago Center
Tue 04:58:36 PM 41.4394 -88.8825 313° West 346 398 21,600 -1,887 Descending Chicago Center
Tue 04:59:38 PM 41.5103 -89.0000 309° West 341 392 18,900 -2,516 Descending Chicago Center
Tue 05:00:40 PM 41.5725 -89.0961 311° West 341 392 16,400 -2,400 Descending Chicago Center
Tue 05:01:43 PM 41.6308 -89.1922 309° West 339 390 13,900 -1,632 Descending Chicago Center
Tue 05:02:45 PM 41.6917 -89.2758 314° West 316 364 13,000 -677 Descending Chicago Center
Tue 05:03:47 PM 41.7631 -89.2744 North 278 320 12,500 -1,210 Descending Chicago Center
Tue 05:04:49 PM 41.8364 -89.2433 18° North 277 319 10,500 -2,516 Descending Chicago Center
Tue 05:05:51 PM 41.9208 -89.2167 13° North 266 306 7,300 -2,758 Descending Chicago Center
Tue 05:06:53 PM 41.9814 -89.1778 26° Northeast 244 281 4,800 -1,887 Descending Chicago Center
Tue 05:07:55 PM 42.0411 -89.1442 23° Northeast 238 274 3,400 -1,016 Descending Chicago Center
Tue 05:08:57 PM 42.0894 -89.1125 26° Northeast 220 253 2,700 -435 Descending Chicago Center
Tue 05:09:59 PM 42.1375 -89.0819 25° Northeast 216 249 2,500 -194 Descending Chicago Center
Tue 05:11:00 PM 42.1833 -89.0833 14° North  Level FlightAware Approximate

Login

Don't have an account? Register now (free) for customized features, flight alerts, and more!